createdAt,value
2018-02-18T00:01:11.552Z,0.90
2018-02-18T00:03:40.445Z,0.90
2018-02-18T00:06:16.489Z,0.80
2018-02-18T00:08:44.572Z,0.80
2018-02-18T00:11:13.426Z,0.80
2018-02-18T00:13:42.652Z,0.70
2018-02-18T00:16:10.435Z,0.70
2018-02-18T00:18:39.806Z,0.70
2018-02-18T00:21:08.093Z,0.70
2018-02-18T00:23:36.435Z,0.60
2018-02-18T00:26:05.246Z,0.70
2018-02-18T00:28:33.265Z,0.60
2018-02-18T00:31:01.561Z,0.60
2018-02-18T00:33:29.958Z,0.70
2018-02-18T00:35:57.778Z,0.60
2018-02-18T00:38:25.547Z,0.60
2018-02-18T00:40:53.488Z,0.50
2018-02-18T00:43:21.208Z,0.50
2018-02-18T00:45:49.080Z,0.50
2018-02-18T00:48:16.842Z,0.50
2018-02-18T00:50:45.469Z,0.40
2018-02-18T00:53:14.129Z,0.40
2018-02-18T00:55:41.888Z,0.50
2018-02-18T00:58:10.875Z,0.40
2018-02-18T01:00:38.681Z,0.50
2018-02-18T01:03:07.283Z,0.50
2018-02-18T01:05:35.761Z,0.40
2018-02-18T01:08:05.283Z,0.50
2018-02-18T01:10:33.186Z,0.50
2018-02-18T01:13:01.286Z,0.40
2018-02-18T01:15:29.888Z,0.40
2018-02-18T01:17:58.365Z,0.40
2018-02-18T01:20:26.559Z,0.40
2018-02-18T01:22:54.564Z,0.40
2018-02-18T01:25:23.706Z,0.50
2018-02-18T01:27:51.646Z,0.50
2018-02-18T01:30:19.709Z,0.50
2018-02-18T01:32:47.880Z,0.40
2018-02-18T01:35:15.544Z,0.40
2018-02-18T01:37:44.096Z,0.40
2018-02-18T01:40:11.768Z,0.30
2018-02-18T01:42:39.578Z,0.30
2018-02-18T01:45:07.990Z,0.40
2018-02-18T01:47:36.038Z,0.40
2018-02-18T01:50:16.524Z,0.30
2018-02-18T01:52:44.275Z,0.30
2018-02-18T01:55:12.917Z,0.30
2018-02-18T01:57:41.607Z,0.30
2018-02-18T02:00:09.555Z,0.30
2018-02-18T02:02:37.671Z,0.30
2018-02-18T02:05:06.005Z,0.20
2018-02-18T02:07:33.992Z,0.10
2018-02-18T02:10:01.872Z,0.00
2018-02-18T02:12:29.975Z,0.00
2018-02-18T02:14:58.649Z,0.00
2018-02-18T02:17:26.640Z,0.00
2018-02-18T02:19:54.983Z,0.00
2018-02-18T02:22:22.728Z,0.00
2018-02-18T02:24:51.599Z,0.00
2018-02-18T02:27:19.638Z,0.00
2018-02-18T02:29:47.859Z,0.00
2018-02-18T02:32:15.621Z,0.00
2018-02-18T02:34:43.421Z,0.00
2018-02-18T02:37:11.961Z,-0.10
2018-02-18T02:39:39.812Z,-0.10
2018-02-18T02:42:07.500Z,-0.10
2018-02-18T02:44:35.221Z,-0.10
2018-02-18T02:47:03.752Z,0.00
2018-02-18T02:49:31.610Z,0.00
2018-02-18T02:52:00.330Z,-0.10
2018-02-18T02:54:28.910Z,-0.10
2018-02-18T02:56:57.462Z,-0.20
2018-02-18T02:59:25.208Z,-0.20
2018-02-18T03:01:53.518Z,-0.20
2018-02-18T03:04:21.680Z,-0.10
2018-02-18T03:06:49.928Z,-0.10
2018-02-18T03:09:17.712Z,-0.10
2018-02-18T03:11:45.512Z,-0.10
2018-02-18T03:14:13.983Z,-0.20
2018-02-18T03:16:43.023Z,-0.20
2018-02-18T03:19:11.532Z,-0.20
2018-02-18T03:21:39.338Z,-0.30
2018-02-18T03:24:07.457Z,-0.20
2018-02-18T03:26:35.216Z,-0.20
2018-02-18T03:29:02.955Z,-0.20
2018-02-18T03:31:30.639Z,-0.10
2018-02-18T03:33:59.382Z,-0.20
2018-02-18T03:36:27.121Z,-0.10
2018-02-18T03:38:54.865Z,-0.20
2018-02-18T03:41:22.828Z,-0.10
2018-02-18T03:43:50.569Z,-0.20
2018-02-18T03:46:18.365Z,-0.20
2018-02-18T03:48:46.303Z,-0.20
2018-02-18T03:51:14.186Z,-0.20
2018-02-18T03:53:41.889Z,-0.20
2018-02-18T03:56:09.575Z,-0.30
2018-02-18T03:58:37.352Z,-0.30
2018-02-18T04:01:05.055Z,-0.30
2018-02-18T04:03:32.770Z,-0.30
2018-02-18T04:06:01.325Z,-0.20
2018-02-18T04:08:29.806Z,-0.20
2018-02-18T04:10:58.316Z,-0.20
2018-02-18T04:13:26.932Z,-0.20
2018-02-18T04:15:54.920Z,-0.20
2018-02-18T04:18:23.410Z,-0.20
2018-02-18T04:20:52.031Z,-0.30
2018-02-18T04:23:19.734Z,-0.20
2018-02-18T04:25:47.390Z,-0.20
2018-02-18T04:28:15.102Z,-0.30
2018-02-18T04:30:42.868Z,-0.20
2018-02-18T04:33:10.671Z,-0.20
2018-02-18T04:35:38.660Z,-0.20
2018-02-18T04:38:06.363Z,-0.20
2018-02-18T04:40:35.376Z,-0.30
2018-02-18T04:43:03.178Z,-0.30
2018-02-18T04:45:30.934Z,-0.40
2018-02-18T04:47:58.899Z,-0.40
2018-02-18T04:50:26.788Z,-0.40
2018-02-18T04:52:54.711Z,-0.40
2018-02-18T04:55:22.620Z,-0.40
2018-02-18T04:57:50.470Z,-0.30
2018-02-18T05:00:19.075Z,-0.40
2018-02-18T05:02:48.392Z,-0.40
2018-02-18T05:05:17.145Z,-0.40
2018-02-18T05:07:44.986Z,-0.40
2018-02-18T05:10:13.205Z,-0.40
2018-02-18T05:12:41.330Z,-0.50
2018-02-18T05:15:10.283Z,-0.50
2018-02-18T05:17:38.018Z,-0.50
2018-02-18T05:20:05.690Z,-0.40
2018-02-18T05:22:33.348Z,-0.40
2018-02-18T05:25:02.172Z,-0.40
2018-02-18T05:27:29.994Z,-0.40
2018-02-18T05:29:58.720Z,-0.40
2018-02-18T05:32:26.501Z,-0.40
2018-02-18T05:34:54.277Z,-0.40
2018-02-18T05:37:22.279Z,-0.40
2018-02-18T05:39:50.019Z,-0.40
2018-02-18T05:42:18.169Z,-0.50
2018-02-18T05:44:46.791Z,-0.50
2018-02-18T05:47:14.724Z,-0.50
2018-02-18T05:49:44.680Z,-0.50
2018-02-18T05:52:12.677Z,-0.50
2018-02-18T05:54:40.721Z,-0.50
2018-02-18T05:57:08.982Z,-0.60
2018-02-18T05:59:38.157Z,-0.60
2018-02-18T06:02:07.127Z,-0.50
2018-02-18T06:04:35.678Z,-0.50
2018-02-18T06:07:03.458Z,-0.50
2018-02-18T06:09:31.914Z,-0.50
2018-02-18T06:11:59.613Z,-0.50
2018-02-18T06:14:27.359Z,-0.60
2018-02-18T06:16:55.577Z,-0.50
2018-02-18T06:19:23.335Z,-0.40
2018-02-18T06:21:51.065Z,-0.40
2018-02-18T06:24:18.733Z,-0.40
2018-02-18T06:26:47.253Z,-0.30
2018-02-18T06:29:14.924Z,-0.30
2018-02-18T06:31:42.800Z,-0.20
2018-02-18T06:34:10.500Z,-0.20
2018-02-18T06:36:39.030Z,0.00
2018-02-18T06:39:06.772Z,-0.10
2018-02-18T06:41:34.599Z,-0.10
2018-02-18T06:44:02.257Z,0.00
2018-02-18T06:46:30.169Z,0.00
2018-02-18T06:48:58.809Z,0.00
2018-02-18T06:51:26.465Z,0.00
2018-02-18T06:53:54.725Z,0.10
2018-02-18T06:56:22.463Z,0.20
2018-02-18T06:58:50.901Z,0.30
2018-02-18T07:01:19.578Z,0.20
2018-02-18T07:03:47.276Z,0.30
2018-02-18T07:06:14.964Z,0.30
2018-02-18T07:08:42.636Z,0.40
2018-02-18T07:11:10.703Z,0.30
2018-02-18T07:13:39.421Z,0.30
2018-02-18T07:16:07.121Z,0.40
2018-02-18T07:18:35.412Z,0.40
2018-02-18T07:21:03.365Z,0.40
2018-02-18T07:23:31.110Z,0.40
2018-02-18T07:26:00.011Z,0.50
2018-02-18T07:28:28.508Z,0.50
2018-02-18T07:30:56.230Z,0.50
2018-02-18T07:33:23.873Z,0.50
2018-02-18T07:35:51.585Z,0.40
2018-02-18T07:38:19.753Z,0.50
2018-02-18T07:40:47.789Z,0.50
2018-02-18T07:43:15.816Z,0.60
2018-02-18T07:45:43.556Z,0.60
2018-02-18T07:48:11.310Z,0.50
2018-02-18T07:50:39.925Z,0.60
2018-02-18T07:53:07.661Z,0.50
2018-02-18T07:55:36.306Z,0.70
2018-02-18T07:58:04.199Z,0.70
2018-02-18T08:00:32.052Z,0.90
2018-02-18T08:03:00.062Z,0.90
2018-02-18T08:05:28.635Z,1.00
2018-02-18T08:07:56.634Z,1.10
2018-02-18T08:10:24.425Z,1.10
2018-02-18T08:12:52.197Z,1.30
2018-02-18T08:15:19.878Z,1.30
2018-02-18T08:17:53.531Z,1.30
2018-02-18T08:20:21.227Z,1.30
2018-02-18T08:22:48.934Z,1.40
2018-02-18T08:25:16.675Z,1.50
2018-02-18T08:27:46.039Z,1.60
2018-02-18T08:30:14.523Z,1.60
2018-02-18T08:32:42.576Z,1.60
2018-02-18T08:35:10.293Z,1.70
2018-02-18T08:37:38.724Z,1.60
2018-02-18T08:40:06.460Z,1.60
2018-02-18T08:42:34.146Z,1.70
2018-02-18T08:45:01.893Z,1.70
2018-02-18T08:47:29.569Z,1.80
2018-02-18T08:49:57.442Z,1.90
2018-02-18T08:52:25.671Z,2.00
2018-02-18T08:54:53.345Z,2.10
2018-02-18T08:57:21.075Z,2.10
2018-02-18T08:59:48.796Z,2.10
2018-02-18T09:02:16.544Z,2.30
2018-02-18T09:04:45.370Z,2.50
2018-02-18T09:07:13.327Z,2.50
2018-02-18T09:09:41.810Z,2.50
2018-02-18T09:12:11.422Z,2.50
2018-02-18T09:14:39.455Z,2.50
2018-02-18T09:17:13.730Z,2.50
2018-02-18T09:19:41.389Z,2.70
2018-02-18T09:22:09.302Z,2.70
2018-02-18T09:24:37.072Z,2.70
2018-02-18T09:27:04.844Z,2.60
2018-02-18T09:29:32.551Z,2.80
2018-02-18T09:32:01.178Z,2.80
2018-02-18T09:34:29.170Z,2.90
2018-02-18T09:36:56.840Z,2.90
2018-02-18T09:39:24.512Z,3.00
2018-02-18T09:41:52.224Z,3.30
2018-02-18T09:44:19.964Z,3.30
2018-02-18T09:46:48.393Z,3.60
2018-02-18T09:49:16.117Z,3.60
2018-02-18T09:51:44.150Z,3.60
2018-02-18T09:54:13.155Z,4.00
2018-02-18T09:56:40.841Z,4.00
2018-02-18T09:59:09.378Z,4.30
2018-02-18T10:01:37.774Z,4.30
2018-02-18T10:04:05.663Z,4.50
2018-02-18T10:06:33.557Z,4.70
2018-02-18T10:09:01.254Z,5.00
2018-02-18T10:11:28.978Z,5.20
2018-02-18T10:13:56.687Z,5.90
2018-02-18T10:16:24.376Z,7.00
2018-02-18T10:18:52.831Z,9.20
2018-02-18T10:21:22.807Z,9.20
2018-02-18T10:23:50.500Z,10.20
2018-02-18T10:26:19.231Z,11.70
2018-02-18T10:28:47.861Z,13.10
2018-02-18T10:31:16.058Z,13.10
2018-02-18T10:33:43.798Z,13.40
2018-02-18T10:36:12.004Z,13.70
2018-02-18T10:38:40.471Z,14.00
2018-02-18T10:41:08.254Z,14.00
2018-02-18T10:43:35.925Z,14.60
2018-02-18T10:46:03.741Z,15.10
2018-02-18T10:48:31.454Z,15.40
2018-02-18T10:50:59.901Z,15.30
2018-02-18T10:53:27.854Z,15.30
2018-02-18T10:55:56.040Z,15.30
2018-02-18T10:58:23.773Z,15.60
2018-02-18T11:00:51.514Z,15.80
2018-02-18T11:03:19.246Z,15.70
2018-02-18T11:05:46.953Z,16.10
2018-02-18T11:08:14.961Z,16.80
2018-02-18T11:10:43.904Z,17.00
2018-02-18T11:13:11.701Z,17.30
2018-02-18T11:15:39.410Z,17.50
2018-02-18T11:18:07.641Z,17.00
2018-02-18T11:20:35.366Z,17.00
2018-02-18T11:23:03.702Z,17.00
2018-02-18T11:25:31.447Z,17.20
2018-02-18T11:27:59.781Z,16.80
2018-02-18T11:30:27.645Z,16.90
2018-02-18T11:32:56.056Z,16.90
2018-02-18T11:35:23.873Z,16.80
2018-02-18T11:37:51.608Z,17.00
2018-02-18T11:40:19.537Z,16.60
2018-02-18T11:42:47.886Z,17.10
2018-02-18T11:45:17.368Z,16.60
2018-02-18T11:47:45.753Z,16.60
2018-02-18T11:50:14.686Z,16.30
2018-02-18T11:52:42.487Z,15.70
2018-02-18T11:55:10.146Z,15.30
2018-02-18T11:57:38.369Z,14.90
2018-02-18T12:00:07.087Z,14.50
2018-02-18T12:02:34.830Z,14.50
2018-02-18T12:05:02.594Z,14.70
2018-02-18T12:07:31.196Z,14.80
2018-02-18T12:09:58.887Z,15.00
2018-02-18T12:12:26.697Z,14.90
2018-02-18T12:14:54.448Z,14.80
2018-02-18T12:17:23.583Z,15.10
2018-02-18T12:19:51.271Z,15.10
2018-02-18T12:22:19.001Z,15.30
2018-02-18T12:24:46.725Z,14.60
2018-02-18T12:27:14.496Z,14.50
2018-02-18T12:29:42.993Z,14.70
2018-02-18T12:32:11.554Z,14.90
2018-02-18T12:34:41.405Z,14.10
2018-02-18T12:37:10.111Z,14.10
2018-02-18T12:39:37.795Z,13.80
2018-02-18T12:42:05.573Z,13.70
2018-02-18T12:44:33.383Z,13.70
2018-02-18T12:47:01.413Z,13.50
2018-02-18T12:49:29.643Z,13.70
2018-02-18T12:51:58.238Z,13.70
2018-02-18T12:54:26.631Z,13.20
2018-02-18T12:56:54.301Z,12.60
2018-02-18T12:59:22.524Z,11.90
2018-02-18T13:01:51.247Z,11.70
2018-02-18T13:04:19.089Z,11.70
2018-02-18T13:06:47.297Z,11.50
2018-02-18T13:09:15.118Z,11.30
2018-02-18T13:11:42.970Z,11.20
2018-02-18T13:14:10.673Z,11.50
2018-02-18T13:16:38.592Z,11.30
2018-02-18T13:19:07.069Z,10.20
2018-02-18T13:21:34.811Z,10.10
2018-02-18T13:24:02.767Z,9.90
2018-02-18T13:26:31.333Z,9.70
2018-02-18T13:28:59.012Z,9.70
2018-02-18T13:31:26.750Z,10.30
2018-02-18T13:33:54.551Z,11.10
2018-02-18T13:36:22.671Z,11.80
2018-02-18T13:38:50.404Z,12.50
2018-02-18T13:41:18.375Z,13.00
2018-02-18T13:43:47.419Z,13.70
2018-02-18T13:46:15.328Z,13.70
2018-02-18T13:48:43.647Z,13.80
2018-02-18T13:51:11.325Z,13.80
2018-02-18T13:53:39.205Z,13.90
2018-02-18T13:56:07.803Z,13.80
2018-02-18T13:58:35.448Z,13.70
2018-02-18T14:01:03.138Z,13.10
2018-02-18T14:03:31.514Z,12.70
2018-02-18T14:05:59.322Z,11.80
2018-02-18T14:08:27.737Z,11.50
2018-02-18T14:10:55.544Z,11.00
2018-02-18T14:13:24.145Z,10.80
2018-02-18T14:15:52.226Z,10.40
2018-02-18T14:18:20.610Z,10.00
2018-02-18T14:20:48.324Z,9.80
2018-02-18T14:23:16.186Z,9.80
2018-02-18T14:25:43.892Z,9.70
2018-02-18T14:28:11.554Z,9.60
2018-02-18T14:30:39.306Z,8.90
2018-02-18T14:33:08.374Z,8.90
2018-02-18T14:35:36.725Z,8.80
2018-02-18T14:38:04.485Z,8.70
2018-02-18T14:40:32.182Z,8.70
2018-02-18T14:43:11.608Z,8.40
2018-02-18T14:45:51.061Z,8.20
2018-02-18T14:48:30.473Z,7.90
2018-02-18T14:51:10.179Z,7.80
2018-02-18T14:53:49.785Z,7.90
2018-02-18T14:56:29.951Z,8.00
2018-02-18T14:58:57.631Z,8.00
2018-02-18T15:01:26.215Z,7.90
2018-02-18T15:03:54.744Z,7.70
2018-02-18T15:06:22.567Z,7.60
2018-02-18T15:08:50.233Z,7.50
2018-02-18T15:11:17.972Z,7.40
2018-02-18T15:13:45.669Z,7.20
2018-02-18T15:16:13.351Z,7.20
2018-02-18T15:18:41.077Z,7.10
2018-02-18T15:21:08.782Z,7.20
2018-02-18T15:23:36.508Z,7.30
2018-02-18T15:26:04.256Z,7.30
2018-02-18T15:28:32.962Z,7.30
2018-02-18T15:31:01.890Z,7.20
2018-02-18T15:33:29.688Z,7.00
2018-02-18T15:35:57.484Z,6.90
2018-02-18T15:38:25.174Z,6.80
2018-02-18T15:40:53.132Z,6.90
2018-02-18T15:43:20.893Z,6.90
2018-02-18T15:45:49.743Z,6.90
2018-02-18T15:48:17.531Z,6.80
2018-02-18T15:50:45.189Z,6.70
2018-02-18T15:53:12.955Z,6.70
2018-02-18T15:55:42.416Z,6.70
2018-02-18T15:58:10.866Z,6.70
2018-02-18T16:00:38.663Z,6.70
2018-02-18T16:03:07.183Z,6.50
2018-02-18T16:05:34.915Z,6.40
2018-02-18T16:08:03.234Z,6.40
2018-02-18T16:10:31.793Z,6.60
2018-02-18T16:13:00.020Z,6.60
2018-02-18T16:15:27.972Z,6.40
2018-02-18T16:17:55.813Z,6.50
2018-02-18T16:20:23.545Z,6.40
2018-02-18T16:22:51.211Z,6.30
2018-02-18T16:25:19.162Z,6.40
2018-02-18T16:27:46.896Z,6.50
2018-02-18T16:30:14.564Z,6.60
2018-02-18T16:32:43.225Z,6.50
2018-02-18T16:35:11.120Z,6.50
2018-02-18T16:37:39.000Z,6.30
2018-02-18T16:40:07.634Z,6.30
2018-02-18T16:42:35.342Z,6.30
2018-02-18T16:45:03.816Z,6.30
2018-02-18T16:47:31.774Z,6.20
2018-02-18T16:50:00.781Z,6.20
2018-02-18T16:52:29.576Z,6.30
2018-02-18T16:54:57.297Z,6.20
2018-02-18T16:57:25.658Z,6.20
2018-02-18T16:59:53.373Z,6.10
2018-02-18T17:02:21.081Z,6.10
2018-02-18T17:04:48.733Z,6.10
2018-02-18T17:07:16.396Z,6.10
2018-02-18T17:09:46.722Z,6.10
2018-02-18T17:12:14.596Z,6.00
2018-02-18T17:14:42.336Z,6.00
2018-02-18T17:17:10.614Z,6.00
2018-02-18T17:19:39.800Z,6.00
2018-02-18T17:22:07.730Z,6.00
2018-02-18T17:24:35.509Z,6.00
2018-02-18T17:27:03.919Z,6.00
2018-02-18T17:29:31.609Z,6.00
2018-02-18T17:32:00.176Z,5.90
2018-02-18T17:34:27.833Z,5.90
2018-02-18T17:36:55.492Z,5.80
2018-02-18T17:39:23.239Z,5.70
2018-02-18T17:41:51.826Z,5.60
2018-02-18T17:44:20.804Z,5.60
2018-02-18T17:46:49.277Z,5.60
2018-02-18T17:49:16.972Z,5.60
2018-02-18T17:51:44.615Z,5.50
2018-02-18T17:54:12.391Z,5.50
2018-02-18T17:56:41.697Z,5.40
2018-02-18T17:59:10.127Z,5.40
2018-02-18T18:01:37.883Z,5.30
2018-02-18T18:04:05.567Z,5.40
2018-02-18T18:06:33.310Z,5.30
2018-02-18T18:09:01.026Z,5.20
2018-02-18T18:11:28.716Z,5.20
2018-02-18T18:13:56.564Z,5.30
2018-02-18T18:16:24.300Z,5.20
2018-02-18T18:18:52.796Z,5.10
2018-02-18T18:21:20.604Z,5.10
2018-02-18T18:23:49.093Z,5.00
2018-02-18T18:26:16.835Z,4.90
2018-02-18T18:28:44.775Z,4.80
2018-02-18T18:31:13.469Z,4.80
2018-02-18T18:33:41.771Z,4.70
2018-02-18T18:36:10.498Z,4.60
2018-02-18T18:38:38.297Z,4.60
2018-02-18T18:41:06.076Z,4.60
2018-02-18T18:43:33.853Z,4.50
2018-02-18T18:46:01.621Z,4.40
2018-02-18T18:48:29.337Z,4.40
2018-02-18T18:50:58.854Z,4.20
2018-02-18T18:53:26.733Z,4.20
2018-02-18T18:55:54.649Z,4.30
2018-02-18T18:58:22.414Z,4.30
2018-02-18T19:00:51.011Z,4.20
2018-02-18T19:03:18.810Z,4.20
2018-02-18T19:05:46.484Z,4.20
2018-02-18T19:08:14.235Z,4.10
2018-02-18T19:10:41.983Z,4.00
2018-02-18T19:13:10.834Z,4.00
2018-02-18T19:15:38.554Z,4.00
2018-02-18T19:18:06.176Z,4.00
2018-02-18T19:20:34.426Z,4.00
2018-02-18T19:23:02.509Z,4.00
2018-02-18T19:25:30.342Z,4.00
2018-02-18T19:27:58.192Z,3.90
2018-02-18T19:30:25.883Z,3.80
2018-02-18T19:32:55.165Z,3.70
2018-02-18T19:35:23.453Z,3.70
2018-02-18T19:37:52.856Z,3.70
2018-02-18T19:40:21.436Z,3.60
2018-02-18T19:42:49.303Z,3.60
2018-02-18T19:45:17.627Z,3.50
2018-02-18T19:47:46.512Z,3.60
2018-02-18T19:50:15.181Z,3.60
2018-02-18T19:52:42.942Z,3.60
2018-02-18T19:55:10.795Z,3.60
2018-02-18T19:57:38.800Z,3.50
2018-02-18T20:00:06.579Z,3.50
2018-02-18T20:02:35.314Z,3.50
2018-02-18T20:05:05.012Z,3.40
2018-02-18T20:07:32.798Z,3.20
2018-02-18T20:10:00.555Z,3.20
2018-02-18T20:12:28.306Z,3.20
2018-02-18T20:14:56.102Z,3.10
2018-02-18T20:17:23.921Z,3.10
2018-02-18T20:19:51.644Z,3.20
2018-02-18T20:22:19.450Z,3.00
2018-02-18T20:24:47.222Z,3.10
2018-02-18T20:27:15.854Z,3.00
2018-02-18T20:29:44.432Z,2.90
2018-02-18T20:32:13.091Z,2.90
2018-02-18T20:34:41.553Z,2.80
2018-02-18T20:37:10.238Z,2.80
2018-02-18T20:39:37.919Z,2.80
2018-02-18T20:42:05.586Z,2.80
2018-02-18T20:44:33.262Z,2.70
2018-02-18T20:47:02.828Z,2.80
2018-02-18T20:49:32.685Z,2.80
2018-02-18T20:52:00.450Z,2.80
2018-02-18T20:54:29.833Z,2.60
2018-02-18T20:56:57.568Z,2.60
2018-02-18T20:59:25.983Z,2.70
2018-02-18T21:01:54.738Z,2.70
2018-02-18T21:04:23.231Z,2.70
2018-02-18T21:06:50.976Z,2.60
2018-02-18T21:09:19.393Z,2.50
2018-02-18T21:11:47.101Z,2.50
2018-02-18T21:14:15.205Z,2.50
2018-02-18T21:16:43.021Z,2.40
2018-02-18T21:19:10.796Z,2.40
2018-02-18T21:21:39.702Z,2.40
2018-02-18T21:24:07.498Z,2.30
2018-02-18T21:26:35.682Z,2.30
2018-02-18T21:29:04.185Z,2.30
2018-02-18T21:31:36.532Z,2.30
2018-02-18T21:34:04.601Z,2.30
2018-02-18T21:36:35.916Z,2.20
2018-02-18T21:39:03.836Z,2.30
2018-02-18T21:41:35.041Z,2.20
2018-02-18T21:44:02.756Z,2.20
2018-02-18T21:46:31.341Z,2.20
2018-02-18T21:48:59.100Z,2.20
2018-02-18T21:51:27.741Z,2.20
2018-02-18T21:53:55.617Z,2.10
2018-02-18T21:56:23.794Z,2.10
2018-02-18T21:58:51.632Z,2.10
2018-02-18T22:01:20.089Z,2.10
2018-02-18T22:03:48.007Z,2.00
2018-02-18T22:06:17.097Z,2.00
2018-02-18T22:08:46.344Z,2.00
2018-02-18T22:11:15.899Z,2.00
2018-02-18T22:13:43.629Z,2.00
2018-02-18T22:16:11.315Z,1.90
2018-02-18T22:18:39.062Z,2.00
2018-02-18T22:21:06.872Z,2.00
2018-02-18T22:23:34.570Z,2.00
2018-02-18T22:26:02.285Z,2.00
2018-02-18T22:28:30.013Z,2.00
2018-02-18T22:30:58.119Z,1.90
2018-02-18T22:33:26.116Z,1.90
2018-02-18T22:35:54.689Z,1.90
2018-02-18T22:38:23.429Z,1.80
2018-02-18T22:40:51.314Z,1.80
2018-02-18T22:43:19.601Z,1.80
2018-02-18T22:45:47.412Z,1.80
2018-02-18T22:48:15.585Z,1.80
2018-02-18T22:50:43.426Z,1.90
2018-02-18T22:53:12.225Z,1.90
2018-02-18T22:55:40.994Z,1.90
2018-02-18T22:58:08.753Z,1.90
2018-02-18T23:00:36.467Z,2.00
2018-02-18T23:03:04.176Z,2.00
2018-02-18T23:05:37.593Z,2.00
2018-02-18T23:08:05.490Z,2.00
2018-02-18T23:10:34.105Z,2.00
2018-02-18T23:13:02.085Z,2.00
2018-02-18T23:15:29.950Z,2.00
2018-02-18T23:17:58.433Z,2.00
2018-02-18T23:20:26.901Z,2.00
2018-02-18T23:22:54.961Z,2.00
2018-02-18T23:25:23.154Z,2.10
2018-02-18T23:27:50.937Z,2.00
2018-02-18T23:30:20.631Z,2.00
2018-02-18T23:32:49.611Z,1.90
2018-02-18T23:35:18.102Z,1.90
2018-02-18T23:37:45.903Z,1.90
2018-02-18T23:40:14.542Z,1.80
2018-02-18T23:42:43.266Z,1.80
2018-02-18T23:45:11.200Z,1.80
2018-02-18T23:47:39.277Z,1.90
2018-02-18T23:50:08.439Z,1.90
2018-02-18T23:52:37.715Z,1.90
2018-02-18T23:55:06.064Z,1.80
2018-02-18T23:57:33.873Z,1.80
